PIMOHWEATHER Station Historical Data
Daily Summary for March 25, 2020 Units:  Metric    English   Both
Daily Weekly Monthly Yearly
  High: Low: Average:
Temperature: 36.0 °C 27.0 °C 30.5 °C
Dew Point: 22.0 °C 20.0 °C 21.4 °C
Humidity: 73% 43% 59%
Wind Speed: 30km/h 0km/h 10.4km/h
Wind Gust: 40km/h - -
Wind- - ESE
Pressure: 1011.2 hPa 1007.1 hPa -
Precipitation: 0.00 mm    
 
 
Tabular Data for March 25, 2020
Time Temperature Dew Point Pressure Wind Wind Speed Wind Gust Humidity Rainfall Rate (Hourly) solar
00:04 28.0 °C 22.0 °C 1010.8 hPa East 8 km/h 12 km/h 67% 0.00 mm 0.00 W/m2
00:09 28.0 °C 22.0 °C 1010.5 hPa ESE 13 km/h 16 km/h 67% 0.00 mm 0.00 W/m2
00:14 28.0 °C 22.0 °C 1010.5 hPa SE 10 km/h 12 km/h 67% 0.00 mm 0.00 W/m2
00:19 28.0 °C 22.0 °C 1010.5 hPa ESE 11 km/h 12 km/h 67% 0.00 mm 0.00 W/m2
00:24 28.0 °C 22.0 °C 1010.8 hPa ESE 10 km/h 12 km/h 67% 0.00 mm 0.00 W/m2
00:29 28.0 °C 22.0 °C 1010.8 hPa ESE 6 km/h 8 km/h 67% 0.00 mm 0.00 W/m2
00:34 28.0 °C 21.0 °C 1010.5 hPa ESE 6 km/h 8 km/h 67% 0.00 mm 0.00 W/m2
00:39 28.0 °C 21.0 °C 1010.5 hPa ESE 6 km/h 8 km/h 67% 0.00 mm 0.00 W/m2
00:44 28.0 °C 22.0 °C 1010.5 hPa SE 6 km/h 8 km/h 68% 0.00 mm 0.00 W/m2
00:49 28.0 °C 22.0 °C 1010.5 hPa ENE 8 km/h 12 km/h 68% 0.00 mm 0.00 W/m2
00:54 28.0 °C 22.0 °C 1010.5 hPa ENE 5 km/h 8 km/h 68% 0.00 mm 0.00 W/m2
00:59 28.0 °C 22.0 °C 1010.5 hPa SE 5 km/h 8 km/h 68% 0.00 mm 0.00 W/m2
01:04 28.0 °C 22.0 °C 1010.5 hPa ESE 2 km/h 4 km/h 69% 0.00 mm 0.00 W/m2
01:09 28.0 °C 22.0 °C 1010.5 hPa East 7 km/h 12 km/h 69% 0.00 mm 0.00 W/m2
01:14 28.0 °C 22.0 °C 1010.2 hPa SE 3 km/h 4 km/h 69% 0.00 mm 0.00 W/m2
01:19 28.0 °C 22.0 °C 1010.2 hPa East 7 km/h 8 km/h 69% 0.00 mm 0.00 W/m2
01:24 28.0 °C 22.0 °C 1010.2 hPa SE 9 km/h 12 km/h 70% 0.00 mm 0.00 W/m2
01:29 28.0 °C 22.0 °C 1010.2 hPa East 8 km/h 12 km/h 70% 0.00 mm 0.00 W/m2
01:34 28.0 °C 22.0 °C 1010.2 hPa East 9 km/h 12 km/h 70% 0.00 mm 0.00 W/m2
01:39 28.0 °C 22.0 °C 1010.2 hPa South 9 km/h 12 km/h 70% 0.00 mm 0.00 W/m2
01:44 28.0 °C 22.0 °C 1009.8 hPa East 4 km/h 8 km/h 70% 0.00 mm 0.00 W/m2
01:49 28.0 °C 22.0 °C 1009.8 hPa ESE 4 km/h 8 km/h 70% 0.00 mm 0.00 W/m2
01:54 28.0 °C 22.0 °C 1009.8 hPa ENE 4 km/h 4 km/h 71% 0.00 mm 0.00 W/m2
01:59 28.0 °C 22.0 °C 1009.8 hPa East 4 km/h 8 km/h 71% 0.00 mm 0.00 W/m2
02:04 28.0 °C 22.0 °C 1009.8 hPa ENE 3 km/h 4 km/h 71% 0.00 mm 0.00 W/m2
02:09 28.0 °C 22.0 °C 1009.5 hPa East 5 km/h 8 km/h 71% 0.00 mm 0.00 W/m2
02:14 28.0 °C 22.0 °C 1009.8 hPa ESE 3 km/h 4 km/h 71% 0.00 mm 0.00 W/m2
02:19 28.0 °C 22.0 °C 1009.5 hPa East 3 km/h 4 km/h 72% 0.00 mm 0.00 W/m2
02:24 28.0 °C 22.0 °C 1009.5 hPa East 6 km/h 8 km/h 72% 0.00 mm 0.00 W/m2
02:29 28.0 °C 22.0 °C 1009.5 hPa NE 4 km/h 4 km/h 72% 0.00 mm 0.00 W/m2
02:34 28.0 °C 22.0 °C 1009.5 hPa Calm   4 km/h 72% 0.00 mm 0.00 W/m2
02:39 28.0 °C 22.0 °C 1009.5 hPa ENE 3 km/h 4 km/h 72% 0.00 mm 0.00 W/m2
02:44 28.0 °C 22.0 °C 1009.5 hPa Calm   4 km/h 72% 0.00 mm 0.00 W/m2
02:49 28.0 °C 22.0 °C 1009.5 hPa Calm   4 km/h 72% 0.00 mm 0.00 W/m2
02:54 27.0 °C 22.0 °C 1009.5 hPa Calm   4 km/h 72% 0.00 mm 0.00 W/m2
02:59 27.0 °C 22.0 °C 1009.5 hPa East 5 km/h 8 km/h 72% 0.00 mm 0.00 W/m2
03:04 27.0 °C 22.0 °C 1009.5 hPa ESE 5 km/h 8 km/h 72% 0.00 mm 0.00 W/m2
03:09 27.0 °C 22.0 °C 1009.5 hPa NNE 2 km/h 4 km/h 72% 0.00 mm 0.00 W/m2
03:14 28.0 °C 22.0 °C 1009.5 hPa East 5 km/h 8 km/h 72% 0.00 mm 0.00 W/m2
03:19 28.0 °C 22.0 °C 1009.5 hPa ESE 1 km/h 4 km/h 72% 0.00 mm 0.00 W/m2
03:24 28.0 °C 22.0 °C 1009.5 hPa ESE 3 km/h 4 km/h 72% 0.00 mm 0.00 W/m2
03:29 28.0 °C 22.0 °C 1009.5 hPa SSE 3 km/h 4 km/h 72% 0.00 mm 0.00 W/m2
03:34 28.0 °C 22.0 °C 1009.5 hPa NE 5 km/h 8 km/h 72% 0.00 mm 0.00 W/m2
03:39 27.0 °C 22.0 °C 1009.1 hPa East 3 km/h 8 km/h 72% 0.00 mm 0.00 W/m2
03:44 27.0 °C 22.0 °C 1009.1 hPa ENE 4 km/h 4 km/h 72% 0.00 mm 0.00 W/m2
03:49 27.0 °C 22.0 °C 1009.1 hPa ESE 4 km/h 8 km/h 72% 0.00 mm 0.00 W/m2
03:54 27.0 °C 22.0 °C 1009.5 hPa SSE 5 km/h 8 km/h 72% 0.00 mm 0.00 W/m2
03:59 27.0 °C 22.0 °C 1009.5 hPa ESE 8 km/h 12 km/h 73% 0.00 mm 0.00 W/m2
04:04 27.0 °C 22.0 °C 1009.1 hPa ESE 7 km/h 8 km/h 73% 0.00 mm 0.00 W/m2
04:09 27.0 °C 22.0 °C 1009.1 hPa East 4 km/h 4 km/h 73% 0.00 mm 0.00 W/m2
04:14 27.0 °C 22.0 °C 1009.1 hPa SSE 6 km/h 8 km/h 73% 0.00 mm 0.00 W/m2
04:19 27.0 °C 22.0 °C 1009.1 hPa ESE 6 km/h 8 km/h 73% 0.00 mm 0.00 W/m2
04:24 27.0 °C 22.0 °C 1009.5 hPa East 4 km/h 8 km/h 73% 0.00 mm 0.00 W/m2
04:29 27.0 °C 22.0 °C 1009.1 hPa ENE 5 km/h 8 km/h 73% 0.00 mm 0.00 W/m2
04:34 27.0 °C 22.0 °C 1009.5 hPa SE 5 km/h 8 km/h 73% 0.00 mm 0.00 W/m2
04:39 27.0 °C 21.0 °C 1009.1 hPa ESE 6 km/h 8 km/h 72% 0.00 mm 0.00 W/m2
04:44 27.0 °C 21.0 °C 1009.1 hPa East 8 km/h 12 km/h 72% 0.00 mm 0.00 W/m2
04:49 27.0 °C 21.0 °C 1009.1 hPa ESE 5 km/h 8 km/h 72% 0.00 mm 0.00 W/m2
04:54 27.0 °C 21.0 °C 1009.5 hPa East 5 km/h 8 km/h 72% 0.00 mm 0.00 W/m2
04:59 27.0 °C 21.0 °C 1009.1 hPa East 10 km/h 12 km/h 72% 0.00 mm 0.00 W/m2
05:04 27.0 °C 21.0 °C 1009.5 hPa South 3 km/h 4 km/h 72% 0.00 mm 0.00 W/m2
05:09 27.0 °C 21.0 °C 1009.5 hPa East 13 km/h 16 km/h 72% 0.00 mm 0.00 W/m2
05:14 27.0 °C 21.0 °C 1009.5 hPa ESE 9 km/h 12 km/h 71% 0.00 mm 0.00 W/m2
05:19 27.0 °C 21.0 °C 1009.1 hPa ESE 10 km/h 12 km/h 71% 0.00 mm 0.00 W/m2
05:24 27.0 °C 21.0 °C 1009.1 hPa East 13 km/h 16 km/h 71% 0.00 mm 0.00 W/m2
05:29 27.0 °C 21.0 °C 1009.5 hPa ESE 9 km/h 12 km/h 71% 0.00 mm 0.00 W/m2
05:39 27.0 °C 21.0 °C 1009.5 hPa ESE 14 km/h 16 km/h 71% 0.00 mm 0.00 W/m2
05:44 27.0 °C 21.0 °C 1009.5 hPa East 11 km/h 12 km/h 71% 0.00 mm 0.00 W/m2
05:49 27.0 °C 21.0 °C 1009.5 hPa East 5 km/h 8 km/h 71% 0.00 mm 0.00 W/m2
05:59 27.0 °C 21.0 °C 1009.5 hPa SE 5 km/h 12 km/h 72% 0.00 mm 3.47 W/m2
06:04 27.0 °C 21.0 °C 1009.5 hPa SE 5 km/h 8 km/h 72% 0.00 mm 6.80 W/m2
06:29 27.0 °C 21.0 °C 1009.8 hPa ESE 5 km/h 8 km/h 71% 0.00 mm 33.51 W/m2
06:34 27.0 °C 21.0 °C 1009.8 hPa East 8 km/h 12 km/h 71% 0.00 mm 36.84 W/m2
06:39 27.0 °C 21.0 °C 1009.8 hPa ESE 8 km/h 12 km/h 71% 0.00 mm 40.78 W/m2
06:44 27.0 °C 21.0 °C 1009.8 hPa ESE 6 km/h 8 km/h 71% 0.00 mm 44.29 W/m2
06:49 27.0 °C 21.0 °C 1010.2 hPa East 8 km/h 12 km/h 70% 0.00 mm 130.53 W/m2
06:54 28.0 °C 21.0 °C 1010.2 hPa NE 8 km/h 12 km/h 70% 0.00 mm 144.65 W/m2
06:59 28.0 °C 22.0 °C 1010.2 hPa ENE 6 km/h 12 km/h 69% 0.00 mm 156.00 W/m2
07:04 28.0 °C 22.0 °C 1010.2 hPa ESE 10 km/h 16 km/h 68% 0.00 mm 166.81 W/m2
07:09 29.0 °C 22.0 °C 1010.2 hPa East 12 km/h 16 km/h 67% 0.00 mm 178.56 W/m2
07:14 29.0 °C 22.0 °C 1010.5 hPa SE 13 km/h 16 km/h 66% 0.00 mm 187.73 W/m2
07:19 29.0 °C 22.0 °C 1010.5 hPa ESE 11 km/h 12 km/h 66% 0.00 mm 198.99 W/m2
07:24 29.0 °C 22.0 °C 1010.5 hPa East 13 km/h 16 km/h 64% 0.00 mm 210.46 W/m2
07:29 29.0 °C 22.0 °C 1010.5 hPa East 12 km/h 16 km/h 64% 0.00 mm 216.14 W/m2
07:34 30.0 °C 22.0 °C 1010.5 hPa SE 12 km/h 16 km/h 63% 0.00 mm 224.58 W/m2
07:39 30.0 °C 22.0 °C 1010.5 hPa East 10 km/h 12 km/h 62% 0.00 mm 234.34 W/m2
07:44 30.0 °C 22.0 °C 1010.5 hPa East 14 km/h 16 km/h 61% 0.00 mm 244.15 W/m2
07:49 30.0 °C 22.0 °C 1010.5 hPa ESE 12 km/h 16 km/h 62% 0.00 mm 249.24 W/m2
07:54 30.0 °C 22.0 °C 1010.8 hPa ENE 10 km/h 16 km/h 61% 0.00 mm 253.67 W/m2
07:59 30.0 °C 22.0 °C 1010.8 hPa SE 18 km/h 20 km/h 61% 0.00 mm 264.19 W/m2
08:04 30.0 °C 22.0 °C 1010.8 hPa ESE 13 km/h 20 km/h 61% 0.00 mm 270.58 W/m2
08:09 30.0 °C 22.0 °C 1010.8 hPa East 18 km/h 24 km/h 61% 0.00 mm 277.89 W/m2
08:14 30.0 °C 22.0 °C 1010.8 hPa East 13 km/h 20 km/h 61% 0.00 mm 285.53 W/m2
08:19 30.0 °C 22.0 °C 1011.2 hPa ENE 12 km/h 16 km/h 61% 0.00 mm 293.55 W/m2
08:24 31.0 °C 22.0 °C 1011.2 hPa SSE 8 km/h 12 km/h 60% 0.00 mm 298.84 W/m2
08:29 31.0 °C 22.0 °C 1011.2 hPa NW 7 km/h 8 km/h 59% 0.00 mm 307.48 W/m2
08:34 31.0 °C 22.0 °C 1010.8 hPa West 15 km/h 20 km/h 58% 0.00 mm 312.12 W/m2
08:39 31.0 °C 22.0 °C 1010.8 hPa SSE 15 km/h 24 km/h 58% 0.00 mm 321.72 W/m2
08:44 31.0 °C 22.0 °C 1011.2 hPa East 14 km/h 16 km/h 58% 0.00 mm 329.23 W/m2
08:49 31.0 °C 22.0 °C 1010.8 hPa East 12 km/h 16 km/h 58% 0.00 mm 330.65 W/m2
08:54 31.0 °C 22.0 °C 1011.2 hPa ESE 13 km/h 20 km/h 58% 0.00 mm 334.36 W/m2
08:59 32.0 °C 22.0 °C 1011.2 hPa East 6 km/h 8 km/h 57% 0.00 mm 346.82 W/m2
09:04 32.0 °C 22.0 °C 1011.2 hPa ENE 10 km/h 16 km/h 56% 0.00 mm 370.50 W/m2
09:09 32.0 °C 22.0 °C 1011.2 hPa East 15 km/h 16 km/h 56% 0.00 mm 366.73 W/m2
09:14 32.0 °C 22.0 °C 1010.8 hPa East 15 km/h 20 km/h 56% 0.00 mm 366.56 W/m2
09:19 32.0 °C 22.0 °C 1010.8 hPa East 12 km/h 16 km/h 55% 0.00 mm 373.32 W/m2
09:24 32.0 °C 22.0 °C 1011.2 hPa NE 16 km/h 20 km/h 55% 0.00 mm 382.91 W/m2
09:29 32.0 °C 22.0 °C 1010.8 hPa ENE 10 km/h 12 km/h 54% 0.00 mm 382.81 W/m2
09:34 32.0 °C 21.0 °C 1010.8 hPa ESE 13 km/h 20 km/h 53% 0.00 mm 392.74 W/m2
09:39 33.0 °C 22.0 °C 1010.8 hPa ESE 15 km/h 24 km/h 53% 0.00 mm 391.67 W/m2
09:44 33.0 °C 21.0 °C 1010.8 hPa East 21 km/h 24 km/h 52% 0.00 mm 396.17 W/m2
09:49 33.0 °C 22.0 °C 1010.8 hPa NW 10 km/h 12 km/h 52% 0.00 mm 406.74 W/m2
09:54 33.0 °C 22.0 °C 1010.8 hPa ESE 12 km/h 20 km/h 51% 0.00 mm 408.89 W/m2
09:59 33.0 °C 21.0 °C 1010.8 hPa SE 12 km/h 16 km/h 50% 0.00 mm 417.01 W/m2
10:04 33.0 °C 21.0 °C 1010.8 hPa ESE 18 km/h 24 km/h 51% 0.00 mm 417.48 W/m2
10:09 34.0 °C 22.0 °C 1010.5 hPa ENE 10 km/h 16 km/h 50% 0.00 mm 427.07 W/m2
10:14 34.0 °C 22.0 °C 1010.5 hPa ENE 15 km/h 20 km/h 50% 0.00 mm 435.78 W/m2
10:19 34.0 °C 21.0 °C 1010.8 hPa East 20 km/h 24 km/h 49% 0.00 mm 444.37 W/m2
10:24 34.0 °C 21.0 °C 1010.8 hPa ENE 18 km/h 28 km/h 48% 0.00 mm 445.79 W/m2
10:29 34.0 °C 21.0 °C 1010.8 hPa East 23 km/h 32 km/h 47% 0.00 mm 439.35 W/m2
10:34 34.0 °C 21.0 °C 1010.5 hPa SE 14 km/h 16 km/h 46% 0.00 mm 435.93 W/m2
10:39 34.0 °C 21.0 °C 1010.5 hPa NE 19 km/h 28 km/h 48% 0.00 mm 440.09 W/m2
10:44 33.0 °C 21.0 °C 1010.5 hPa ESE 17 km/h 28 km/h 49% 0.00 mm 438.03 W/m2
10:54 34.0 °C 21.0 °C 1010.5 hPa East 14 km/h 20 km/h 47% 0.00 mm 449.48 W/m2
10:59 34.0 °C 21.0 °C 1010.5 hPa NNW 14 km/h 20 km/h 46% 0.00 mm 457.26 W/m2
11:04 34.0 °C 21.0 °C 1010.2 hPa ESE 14 km/h 16 km/h 47% 0.00 mm 454.69 W/m2
11:09 34.0 °C 21.0 °C 1010.5 hPa SW 13 km/h 24 km/h 47% 0.00 mm 455.26 W/m2
11:14 34.0 °C 21.0 °C 1010.2 hPa ESE 13 km/h 16 km/h 47% 0.00 mm 462.35 W/m2
11:19 34.0 °C 21.0 °C 1010.2 hPa ENE 22 km/h 24 km/h 47% 0.00 mm 457.46 W/m2
11:24 34.0 °C 21.0 °C 1009.8 hPa NNE 14 km/h 16 km/h 47% 0.00 mm 455.40 W/m2
11:29 35.0 °C 21.0 °C 1009.8 hPa ESE 9 km/h 12 km/h 47% 0.00 mm 483.54 W/m2
12:04 35.0 °C 21.0 °C 1009.1 hPa ENE 15 km/h 20 km/h 45% 0.00 mm 496.22 W/m2
12:14 35.0 °C 21.0 °C 1009.1 hPa NNW 14 km/h 20 km/h 46% 0.00 mm 507.96 W/m2
12:19 34.0 °C 21.0 °C 1009.1 hPa ENE 18 km/h 24 km/h 46% 0.00 mm 481.17 W/m2
12:24 35.0 °C 22.0 °C 1009.1 hPa East 9 km/h 12 km/h 46% 0.00 mm 490.29 W/m2
12:29 35.0 °C 22.0 °C 1008.8 hPa East 10 km/h 12 km/h 46% 0.00 mm 517.04 W/m2
12:34 35.0 °C 21.0 °C 1008.8 hPa ENE 18 km/h 24 km/h 47% 0.00 mm 514.13 W/m2
12:39 35.0 °C 21.0 °C 1008.8 hPa ESE 17 km/h 24 km/h 46% 0.00 mm 514.76 W/m2
12:44 35.0 °C 21.0 °C 1008.8 hPa ENE 24 km/h 32 km/h 46% 0.00 mm 529.27 W/m2
12:49 35.0 °C 21.0 °C 1008.8 hPa SSE 13 km/h 20 km/h 46% 0.00 mm 484.52 W/m2
12:54 35.0 °C 21.0 °C 1008.8 hPa NE 19 km/h 24 km/h 45% 0.00 mm 487.31 W/m2
12:59 35.0 °C 21.0 °C 1008.5 hPa NE 17 km/h 20 km/h 46% 0.00 mm 494.92 W/m2
13:04 35.0 °C 21.0 °C 1008.5 hPa ESE 13 km/h 16 km/h 45% 0.00 mm 495.95 W/m2
13:09 35.0 °C 21.0 °C 1008.5 hPa NW 15 km/h 20 km/h 45% 0.00 mm 491.13 W/m2
13:14 35.0 °C 21.0 °C 1008.5 hPa NE 18 km/h 24 km/h 46% 0.00 mm 487.55 W/m2
13:19 35.0 °C 22.0 °C 1008.5 hPa NW 19 km/h 24 km/h 45% 0.00 mm 499.40 W/m2
13:24 35.0 °C 22.0 °C 1008.1 hPa NNE 12 km/h 20 km/h 46% 0.00 mm 491.96 W/m2
13:29 35.0 °C 22.0 °C 1008.1 hPa NE 17 km/h 20 km/h 45% 0.00 mm 493.74 W/m2
13:34 35.0 °C 21.0 °C 1008.1 hPa NE 19 km/h 28 km/h 45% 0.00 mm 487.21 W/m2
13:39 34.0 °C 21.0 °C 1008.1 hPa NE 30 km/h 40 km/h 45% 0.00 mm 471.26 W/m2
13:44 35.0 °C 22.0 °C 1007.8 hPa East 12 km/h 20 km/h 45% 0.00 mm 486.06 W/m2
13:49 35.0 °C 21.0 °C 1007.8 hPa North 21 km/h 28 km/h 45% 0.00 mm 488.12 W/m2
13:54 35.0 °C 21.0 °C 1007.8 hPa NNE 17 km/h 28 km/h 44% 0.00 mm 479.38 W/m2
13:59 35.0 °C 21.0 °C 1007.5 hPa ESE 15 km/h 20 km/h 46% 0.00 mm 481.68 W/m2
14:04 35.0 °C 22.0 °C 1007.5 hPa ESE 15 km/h 20 km/h 45% 0.00 mm 491.05 W/m2
14:09 36.0 °C 22.0 °C 1007.5 hPa WSW 19 km/h 24 km/h 45% 0.00 mm 491.18 W/m2
14:14 35.0 °C 22.0 °C 1007.5 hPa NE 25 km/h 28 km/h 45% 0.00 mm 485.60 W/m2
14:19 35.0 °C 22.0 °C 1007.5 hPa South 10 km/h 16 km/h 46% 0.00 mm 490.91 W/m2
14:24 36.0 °C 21.0 °C 1007.5 hPa NNE 23 km/h 32 km/h 45% 0.00 mm 475.03 W/m2
14:29 35.0 °C 21.0 °C 1007.5 hPa NNW 6 km/h 8 km/h 43% 0.00 mm 467.98 W/m2
14:34 35.0 °C 22.0 °C 1007.5 hPa ENE 13 km/h 16 km/h 45% 0.00 mm 471.80 W/m2
14:39 36.0 °C 21.0 °C 1007.5 hPa SE 15 km/h 16 km/h 45% 0.00 mm 467.81 W/m2
14:44 36.0 °C 21.0 °C 1007.5 hPa SSE 14 km/h 16 km/h 44% 0.00 mm 469.67 W/m2
14:49 35.0 °C 21.0 °C 1007.1 hPa ENE 14 km/h 20 km/h 45% 0.00 mm 463.43 W/m2
14:54 36.0 °C 21.0 °C 1007.5 hPa ENE 9 km/h 16 km/h 45% 0.00 mm 461.81 W/m2
14:59 36.0 °C 21.0 °C 1007.5 hPa SE 17 km/h 20 km/h 44% 0.00 mm 458.36 W/m2
15:04 35.0 °C 21.0 °C 1007.5 hPa East 20 km/h 24 km/h 45% 0.00 mm 447.09 W/m2
15:09 35.0 °C 21.0 °C 1007.5 hPa ENE 17 km/h 24 km/h 45% 0.00 mm 440.67 W/m2
15:14 35.0 °C 21.0 °C 1007.1 hPa South 12 km/h 16 km/h 44% 0.00 mm 428.34 W/m2
15:19 35.0 °C 21.0 °C 1007.5 hPa ENE 13 km/h 24 km/h 45% 0.00 mm 423.33 W/m2
15:24 35.0 °C 21.0 °C 1007.1 hPa ENE 15 km/h 20 km/h 45% 0.00 mm 417.92 W/m2
15:29 35.0 °C 21.0 °C 1007.1 hPa North 11 km/h 20 km/h 45% 0.00 mm 417.65 W/m2
15:34 35.0 °C 21.0 °C 1007.5 hPa NNE 11 km/h 16 km/h 45% 0.00 mm 410.80 W/m2
15:39 35.0 °C 21.0 °C 1007.1 hPa ENE 13 km/h 20 km/h 46% 0.00 mm 407.69 W/m2
15:44 35.0 °C 21.0 °C 1007.1 hPa ENE 17 km/h 24 km/h 47% 0.00 mm 396.93 W/m2
15:49 35.0 °C 21.0 °C 1007.1 hPa ESE 13 km/h 16 km/h 47% 0.00 mm 381.88 W/m2
15:54 35.0 °C 21.0 °C 1007.1 hPa ESE 13 km/h 16 km/h 46% 0.00 mm 376.79 W/m2
15:59 35.0 °C 21.0 °C 1007.1 hPa ENE 10 km/h 16 km/h 46% 0.00 mm 368.47 W/m2
16:04 35.0 °C 21.0 °C 1007.5 hPa SE 12 km/h 20 km/h 46% 0.00 mm 366.07 W/m2
16:09 35.0 °C 21.0 °C 1007.5 hPa SE 14 km/h 16 km/h 47% 0.00 mm 354.79 W/m2
16:14 34.0 °C 21.0 °C 1007.5 hPa East 22 km/h 24 km/h 48% 0.00 mm 350.76 W/m2
16:19 34.0 °C 21.0 °C 1007.5 hPa WSW 8 km/h 12 km/h 47% 0.00 mm 343.71 W/m2
16:24 34.0 °C 21.0 °C 1007.5 hPa East 17 km/h 28 km/h 48% 0.00 mm 334.63 W/m2
16:29 34.0 °C 22.0 °C 1007.5 hPa ENE 9 km/h 16 km/h 48% 0.00 mm 325.34 W/m2
16:34 34.0 °C 21.0 °C 1007.5 hPa NNE 8 km/h 16 km/h 47% 0.00 mm 315.26 W/m2
16:39 34.0 °C 21.0 °C 1007.5 hPa ESE 12 km/h 16 km/h 47% 0.00 mm 307.62 W/m2
16:44 34.0 °C 21.0 °C 1007.5 hPa SE 15 km/h 20 km/h 47% 0.00 mm 296.81 W/m2
16:49 34.0 °C 21.0 °C 1007.5 hPa ESE 15 km/h 24 km/h 48% 0.00 mm 278.41 W/m2
16:54 33.0 °C 21.0 °C 1007.5 hPa East 15 km/h 20 km/h 49% 0.00 mm 265.66 W/m2
16:59 33.0 °C 21.0 °C 1007.8 hPa NNE 20 km/h 24 km/h 50% 0.00 mm 250.03 W/m2
17:04 33.0 °C 21.0 °C 1007.8 hPa SE 17 km/h 20 km/h 50% 0.00 mm 233.12 W/m2
17:09 33.0 °C 21.0 °C 1007.8 hPa NE 16 km/h 32 km/h 50% 0.00 mm 217.02 W/m2
17:14 32.0 °C 21.0 °C 1007.8 hPa ENE 10 km/h 16 km/h 51% 0.00 mm 61.69 W/m2
17:19 32.0 °C 21.0 °C 1007.8 hPa ESE 13 km/h 16 km/h 51% 0.00 mm 55.50 W/m2
17:24 32.0 °C 21.0 °C 1007.8 hPa East 20 km/h 24 km/h 52% 0.00 mm 50.16 W/m2
17:29 32.0 °C 21.0 °C 1008.1 hPa SSE 10 km/h 12 km/h 52% 0.00 mm 45.28 W/m2
17:34 32.0 °C 21.0 °C 1008.1 hPa NE 9 km/h 12 km/h 52% 0.00 mm 39.50 W/m2
17:39 32.0 °C 21.0 °C 1008.1 hPa ENE 12 km/h 16 km/h 52% 0.00 mm 34.80 W/m2
17:44 32.0 °C 21.0 °C 1008.1 hPa NE 9 km/h 12 km/h 53% 0.00 mm 29.72 W/m2
17:47 32.0 °C 21.0 °C 1008.5 hPa NNE 12 km/h 16 km/h 53% 0.00 mm 24.17 W/m2
17:59 31.0 °C 21.0 °C 1008.5 hPa NNW 6 km/h 8 km/h 55% 0.00 mm 10.09 W/m2
18:04 31.0 °C 21.0 °C 1008.5 hPa East 16 km/h 20 km/h 55% 0.00 mm 6.73 W/m2
18:09 31.0 °C 21.0 °C 1008.5 hPa NNE 9 km/h 12 km/h 55% 0.00 mm 3.72 W/m2
18:14 31.0 °C 21.0 °C 1008.5 hPa East 10 km/h 16 km/h 56% 0.00 mm 0.69 W/m2
18:19 31.0 °C 21.0 °C 1008.5 hPa NNE 10 km/h 16 km/h 56% 0.00 mm 0.00 W/m2
18:24 30.0 °C 21.0 °C 1008.8 hPa ENE 10 km/h 16 km/h 56% 0.00 mm 0.00 W/m2
18:29 30.0 °C 21.0 °C 1008.8 hPa East 10 km/h 16 km/h 57% 0.00 mm 0.00 W/m2
18:34 30.0 °C 21.0 °C 1008.8 hPa SE 10 km/h 16 km/h 57% 0.00 mm 0.00 W/m2
18:39 30.0 °C 21.0 °C 1009.1 hPa WSW 10 km/h 16 km/h 57% 0.00 mm 0.00 W/m2
18:44 30.0 °C 21.0 °C 1008.8 hPa ESE 11 km/h 12 km/h 58% 0.00 mm 0.00 W/m2
18:49 30.0 °C 21.0 °C 1009.1 hPa ENE 7 km/h 8 km/h 58% 0.00 mm 0.00 W/m2
18:54 30.0 °C 21.0 °C 1008.8 hPa East 10 km/h 12 km/h 59% 0.00 mm 0.00 W/m2
18:59 30.0 °C 21.0 °C 1009.1 hPa East 12 km/h 12 km/h 59% 0.00 mm 0.00 W/m2
19:04 30.0 °C 21.0 °C 1009.1 hPa NE 8 km/h 12 km/h 59% 0.00 mm 0.00 W/m2
19:09 30.0 °C 21.0 °C 1009.1 hPa East 11 km/h 16 km/h 59% 0.00 mm 0.00 W/m2
19:14 30.0 °C 21.0 °C 1009.1 hPa ESE 10 km/h 12 km/h 59% 0.00 mm 0.00 W/m2
19:19 30.0 °C 21.0 °C 1009.1 hPa SSE 6 km/h 8 km/h 60% 0.00 mm 0.00 W/m2
19:24 30.0 °C 21.0 °C 1009.1 hPa NE 10 km/h 12 km/h 60% 0.00 mm 0.00 W/m2
19:29 30.0 °C 21.0 °C 1009.1 hPa East 12 km/h 16 km/h 60% 0.00 mm 0.00 W/m2
19:34 29.0 °C 21.0 °C 1009.5 hPa ESE 9 km/h 12 km/h 61% 0.00 mm 0.00 W/m2
19:39 29.0 °C 21.0 °C 1009.5 hPa East 9 km/h 12 km/h 62% 0.00 mm 0.00 W/m2
19:44 29.0 °C 21.0 °C 1009.1 hPa SE 9 km/h 12 km/h 62% 0.00 mm 0.00 W/m2
19:49 29.0 °C 21.0 °C 1009.5 hPa ENE 8 km/h 12 km/h 62% 0.00 mm 0.00 W/m2
19:54 29.0 °C 21.0 °C 1009.5 hPa East 12 km/h 16 km/h 62% 0.00 mm 0.00 W/m2
19:59 29.0 °C 21.0 °C 1009.8 hPa SSE 5 km/h 8 km/h 63% 0.00 mm 0.00 W/m2
20:04 29.0 °C 21.0 °C 1009.8 hPa SW 5 km/h 8 km/h 63% 0.00 mm 0.00 W/m2
20:09 29.0 °C 21.0 °C 1009.8 hPa ENE 6 km/h 8 km/h 63% 0.00 mm 0.00 W/m2
20:14 29.0 °C 21.0 °C 1009.8 hPa SSE 10 km/h 12 km/h 63% 0.00 mm 0.00 W/m2
20:19 29.0 °C 21.0 °C 1009.8 hPa East 10 km/h 16 km/h 63% 0.00 mm 0.00 W/m2
20:24 29.0 °C 21.0 °C 1009.8 hPa ESE 9 km/h 16 km/h 64% 0.00 mm 0.00 W/m2
20:29 29.0 °C 21.0 °C 1010.2 hPa East 8 km/h 12 km/h 64% 0.00 mm 0.00 W/m2
20:34 29.0 °C 21.0 °C 1010.2 hPa ESE 9 km/h 12 km/h 64% 0.00 mm 0.00 W/m2
20:39 29.0 °C 21.0 °C 1010.5 hPa SE 6 km/h 12 km/h 64% 0.00 mm 0.00 W/m2
20:44 29.0 °C 21.0 °C 1010.2 hPa NE 10 km/h 12 km/h 64% 0.00 mm 0.00 W/m2
20:49 29.0 °C 21.0 °C 1010.2 hPa ESE 7 km/h 12 km/h 64% 0.00 mm 0.00 W/m2
20:54 29.0 °C 21.0 °C 1010.2 hPa NE 12 km/h 16 km/h 63% 0.00 mm 0.00 W/m2
20:59 29.0 °C 21.0 °C 1010.2 hPa ESE 10 km/h 16 km/h 63% 0.00 mm 0.00 W/m2
21:04 29.0 °C 21.0 °C 1010.2 hPa ENE 9 km/h 12 km/h 63% 0.00 mm 0.00 W/m2
21:09 29.0 °C 21.0 °C 1010.5 hPa ESE 8 km/h 12 km/h 63% 0.00 mm 0.00 W/m2
21:14 29.0 °C 21.0 °C 1010.5 hPa ESE 6 km/h 8 km/h 62% 0.00 mm 0.00 W/m2
21:19 29.0 °C 21.0 °C 1010.5 hPa ENE 11 km/h 16 km/h 62% 0.00 mm 0.00 W/m2
21:24 29.0 °C 21.0 °C 1010.8 hPa ESE 9 km/h 12 km/h 62% 0.00 mm 0.00 W/m2
21:29 29.0 °C 21.0 °C 1010.8 hPa NE 12 km/h 16 km/h 62% 0.00 mm 0.00 W/m2
21:34 29.0 °C 21.0 °C 1010.5 hPa SSE 5 km/h 8 km/h 62% 0.00 mm 0.00 W/m2
21:39 29.0 °C 21.0 °C 1010.8 hPa SE 9 km/h 16 km/h 62% 0.00 mm 0.00 W/m2
21:44 28.0 °C 20.0 °C 1011.2 hPa SSE 8 km/h 12 km/h 62% 0.00 mm 0.00 W/m2
21:49 28.0 °C 20.0 °C 1010.8 hPa SE 8 km/h 12 km/h 62% 0.00 mm 0.00 W/m2
21:54 28.0 °C 20.0 °C 1011.2 hPa SE 8 km/h 12 km/h 62% 0.00 mm 0.00 W/m2
21:59 28.0 °C 20.0 °C 1010.8 hPa SE 6 km/h 12 km/h 62% 0.00 mm 0.00 W/m2
22:04 28.0 °C 21.0 °C 1011.2 hPa SE 10 km/h 12 km/h 63% 0.00 mm 0.00 W/m2
22:09 28.0 °C 21.0 °C 1011.2 hPa NNE 9 km/h 12 km/h 63% 0.00 mm 0.00 W/m2
22:14 28.0 °C 21.0 °C 1011.2 hPa NNE 18 km/h 24 km/h 63% 0.00 mm 0.00 W/m2
22:19 28.0 °C 21.0 °C 1011.2 hPa NE 11 km/h 16 km/h 63% 0.00 mm 0.00 W/m2
22:24 28.0 °C 21.0 °C 1011.2 hPa NNE 13 km/h 16 km/h 63% 0.00 mm 0.00 W/m2
22:29 28.0 °C 21.0 °C 1011.2 hPa NNE 12 km/h 16 km/h 63% 0.00 mm 0.00 W/m2
22:34 28.0 °C 21.0 °C 1011.2 hPa NE 10 km/h 12 km/h 64% 0.00 mm 0.00 W/m2
22:39 28.0 °C 21.0 °C 1011.2 hPa East 6 km/h 8 km/h 64% 0.00 mm 0.00 W/m2
22:44 28.0 °C 21.0 °C 1011.2 hPa NE 5 km/h 8 km/h 64% 0.00 mm 0.00 W/m2
22:49 28.0 °C 21.0 °C 1011.2 hPa NE 10 km/h 12 km/h 64% 0.00 mm 0.00 W/m2
22:54 28.0 °C 21.0 °C 1011.2 hPa NNW 6 km/h 8 km/h 64% 0.00 mm 0.00 W/m2
22:59 28.0 °C 21.0 °C 1011.2 hPa NE 5 km/h 8 km/h 65% 0.00 mm 0.00 W/m2
23:04 28.0 °C 21.0 °C 1011.2 hPa NNE 6 km/h 8 km/h 65% 0.00 mm 0.00 W/m2
23:09 28.0 °C 21.0 °C 1011.2 hPa NNE 8 km/h 12 km/h 66% 0.00 mm 0.00 W/m2
23:14 28.0 °C 21.0 °C 1011.2 hPa NE 13 km/h 16 km/h 66% 0.00 mm 0.00 W/m2
23:19 28.0 °C 21.0 °C 1011.2 hPa NNE 9 km/h 12 km/h 66% 0.00 mm 0.00 W/m2
23:24 28.0 °C 21.0 °C 1011.2 hPa NE 7 km/h 8 km/h 66% 0.00 mm 0.00 W/m2
23:29 28.0 °C 21.0 °C 1011.2 hPa NE 8 km/h 12 km/h 66% 0.00 mm 0.00 W/m2
23:34 28.0 °C 21.0 °C 1011.2 hPa NE 10 km/h 12 km/h 66% 0.00 mm 0.00 W/m2
23:39 28.0 °C 21.0 °C 1011.2 hPa NNE 6 km/h 8 km/h 66% 0.00 mm 0.00 W/m2
23:44 28.0 °C 21.0 °C 1011.2 hPa NNE 5 km/h 8 km/h 66% 0.00 mm 0.00 W/m2
23:49 27.0 °C 21.0 °C 1011.2 hPa NNE 9 km/h 12 km/h 67% 0.00 mm 0.00 W/m2
23:54 27.0 °C 21.0 °C 1011.2 hPa NNE 6 km/h 8 km/h 67% 0.00 mm 0.00 W/m2
23:59 28.0 °C 21.0 °C 1011.2 hPa NNE 4 km/h 4 km/h 67% 0.00 mm 0.00 W/m2
PIMOHWEATHER Philippines
Compliments of Weather Underground - 2 mb